Create Tblcommutelog Verified Points Advance Search
| # | Trip ID | Id Commuter | Trip Date | Trip Num | Current Lat | Current Lng | Delta Distance | Current Time | Activity | Activity Confidence | Current Speed | |
|---|---|---|---|---|---|---|---|---|---|---|---|---|
| 71761 | 260203_698742_16554557_1637 | 698742 | (not set) | (not set) | 38.82573201121 | -77.19371344179 | 23.1961 | 2026-02-03 18:02:31 | in_vehicle | 100 | 7.5326115139432 | |
| 71762 | 260203_737706_16658988_1620 | 737706 | (not set) | (not set) | 39.1926909 | -76.8124067 | 17.6368 | 2026-02-03 18:02:42 | in_vehicle | 100 | 8.0958809802677 | |
| 71763 | 260203_788480_16657111_1743 | 788480 | (not set) | (not set) | 38.913682357118 | -77.046874697171 | 2.1073 | 2026-02-03 18:02:52 | unknown | 100 | 0.73761477732975 | |
| 71764 | 260203_782405_16650093_1657 | 782405 | (not set) | (not set) | 39.061133589654 | -76.886390863381 | 23.474 | 2026-02-03 18:02:56 | in_vehicle | 100 | 6.6832369218665 | |
| 71765 | 260203_789453_16658316_1706 | 789453 | (not set) | (not set) | 38.914672625287 | -76.98812604889 | 26.9739 | 2026-02-03 18:03:06 | in_vehicle | 100 | 4.2021690344846 | |
| 71766 | 260203_737706_16658988_1620 | 737706 | (not set) | (not set) | 39.1962465 | -76.8164079 | 17.9633 | 2026-02-03 18:03:09 | in_vehicle | 100 | 8.8334957575974 | |
| 71767 | 260203_789022_16657785_1728 | 789022 | (not set) | (not set) | 38.806561340583 | -77.061171674565 | 9.112 | 2026-02-03 18:03:19 | in_vehicle | 100 | 2.2843706134273 | |
| 71768 | 260203_789022_16657785_1728 | 789022 | (not set) | (not set) | 38.806561340583 | -77.061171674565 | 9.112 | 2026-02-03 18:03:19 | in_vehicle | 100 | 2.2843706134273 | |
| 71769 | 260203_772317_16639583_1754 | 772317 | (not set) | (not set) | 38.899350535974 | -77.044567738884 | 0.0307 | 2026-02-03 18:03:27 | on_foot | 100 | -0.44703925898772 | |
| 71770 | 260203_785997_16654252_1608 | 785997 | (not set) | (not set) | 39.539905111805 | -76.166818108085 | 74.0682 | 2026-02-03 18:03:36 | in_vehicle | 100 | 10.259550993768 | |
| 71771 | 260203_785147_16653236_1642 | 785147 | (not set) | (not set) | 39.145075383333 | -78.160745166667 | 50.9084 | 2026-02-03 18:03:45 | in_vehicle | 100 | 0 | |
| 71772 | 260203_789022_16657785_1728 | 789022 | (not set) | (not set) | 38.806513317981 | -77.061257299639 | 9.1177 | 2026-02-03 18:03:55 | in_vehicle | 100 | -0.44703925898772 | |
| 71773 | 260203_783292_16651014_1605 | 783292 | (not set) | (not set) | 38.8468116 | -77.3033526 | 28.518 | 2026-02-03 18:04:01 | in_vehicle | 100 | 0 | |
| 71774 | 260203_789453_16658316_1706 | 789453 | (not set) | (not set) | 38.912043703548 | -76.995693090186 | 27.4203 | 2026-02-03 18:04:08 | in_vehicle | 100 | 4.3362808121809 | |
| 71775 | 260203_789453_16658316_1706 | 789453 | (not set) | (not set) | 38.912043703548 | -76.995693090186 | 27.4203 | 2026-02-03 18:04:08 | in_vehicle | 100 | 4.3362808121809 | |
| 71776 | 260203_782405_16650093_1657 | 782405 | (not set) | (not set) | 39.045554469693 | -76.901589785305 | 24.8277 | 2026-02-03 18:04:19 | in_vehicle | 100 | 13.442470517761 | |
| 71777 | 260203_783727_16651486_1736 | 783727 | (not set) | (not set) | 38.998350331574 | -77.097415299657 | 5.8892 | 2026-02-03 18:04:30 | in_vehicle | 100 | -0.44703925898772 | |
| 71778 | 260203_781336_16450333_1747 | 781336 | (not set) | (not set) | 38.953589592165 | -77.390878927035 | 8.3331 | 2026-02-03 18:04:36 | in_vehicle | 100 | 7.3448550251683 | |
| 71779 | 260203_791231_16660356_1710 | 791231 | (not set) | (not set) | 39.290498942409 | -76.590485690305 | 23.3968 | 2026-02-03 18:04:45 | still | 33 | -0.44703925898772 | |
| 71780 | 260203_786932_16655350_1710 | 786932 | (not set) | (not set) | 39.291803889237 | -76.587569333084 | 23.4367 | 2026-02-03 18:04:50 | in_vehicle | 100 | -0.44703925898772 |